sensor_id;sensor_type;location;lat;lon;timestamp;temperature;humidity
5415;DHT22;2730;51.512;7.504;2023-02-16T00:00:48;5.90;46.80
5415;DHT22;2730;51.512;7.504;2023-02-16T00:03:16;5.90;52.20
5415;DHT22;2730;51.512;7.504;2023-02-16T00:05:43;5.90;53.00
5415;DHT22;2730;51.512;7.504;2023-02-16T00:08:11;5.90;49.40
5415;DHT22;2730;51.512;7.504;2023-02-16T00:10:38;5.90;46.70
5415;DHT22;2730;51.512;7.504;2023-02-16T00:13:18;5.90;42.40
5415;DHT22;2730;51.512;7.504;2023-02-16T00:16:07;5.90;48.90
5415;DHT22;2730;51.512;7.504;2023-02-16T00:18:37;5.90;52.00
5415;DHT22;2730;51.512;7.504;2023-02-16T00:21:04;5.80;44.30
5415;DHT22;2730;51.512;7.504;2023-02-16T00:23:32;5.70;54.40
5415;DHT22;2730;51.512;7.504;2023-02-16T00:25:59;5.60;63.80
5415;DHT22;2730;51.512;7.504;2023-02-16T00:28:26;5.50;68.70
5415;DHT22;2730;51.512;7.504;2023-02-16T00:30:52;5.40;78.40
5415;DHT22;2730;51.512;7.504;2023-02-16T00:33:20;5.30;90.20
5415;DHT22;2730;51.512;7.504;2023-02-16T00:35:47;5.30;93.80
5415;DHT22;2730;51.512;7.504;2023-02-16T00:38:14;5.30;91.70
5415;DHT22;2730;51.512;7.504;2023-02-16T00:40:43;5.30;93.80
5415;DHT22;2730;51.512;7.504;2023-02-16T00:43:20;5.20;95.00
5415;DHT22;2730;51.512;7.504;2023-02-16T00:45:48;5.20;97.20
5415;DHT22;2730;51.512;7.504;2023-02-16T00:48:15;5.20;96.90
5415;DHT22;2730;51.512;7.504;2023-02-16T00:50:42;5.10;97.70
5415;DHT22;2730;51.512;7.504;2023-02-16T00:53:09;5.10;99.90
5415;DHT22;2730;51.512;7.504;2023-02-16T00:55:37;5.00;99.90
5415;DHT22;2730;51.512;7.504;2023-02-16T00:58:10;5.00;99.90
5415;DHT22;2730;51.512;7.504;2023-02-16T01:00:40;5.00;99.90
5415;DHT22;2730;51.512;7.504;2023-02-16T01:03:10;4.90;99.90
5415;DHT22;2730;51.512;7.504;2023-02-16T01:05:37;4.80;99.90
5415;DHT22;2730;51.512;7.504;2023-02-16T01:08:08;4.80;99.90
5415;DHT22;2730;51.512;7.504;2023-02-16T01:10:53;4.70;99.90
5415;DHT22;2730;51.512;7.504;2023-02-16T01:13:40;4.70;99.90
5415;DHT22;2730;51.512;7.504;2023-02-16T01:16:13;4.80;99.90
5415;DHT22;2730;51.512;7.504;2023-02-16T01:18:41;4.80;99.90
5415;DHT22;2730;51.512;7.504;2023-02-16T01:21:07;4.90;99.90
5415;DHT22;2730;51.512;7.504;2023-02-16T01:23:35;4.90;99.90
5415;DHT22;2730;51.512;7.504;2023-02-16T01:26:02;5.00;99.90
5415;DHT22;2730;51.512;7.504;2023-02-16T01:28:32;5.10;96.70
5415;DHT22;2730;51.512;7.504;2023-02-16T01:31:00;5.20;94.60
5415;DHT22;2730;51.512;7.504;2023-02-16T01:33:27;5.30;70.20
5415;DHT22;2730;51.512;7.504;2023-02-16T01:35:55;5.30;58.30
5415;DHT22;2730;51.512;7.504;2023-02-16T01:38:24;5.40;48.00
5415;DHT22;2730;51.512;7.504;2023-02-16T01:40:59;5.30;44.70
5415;DHT22;2730;51.512;7.504;2023-02-16T01:43:32;5.20;52.40
5415;DHT22;2730;51.512;7.504;2023-02-16T01:46:08;5.00;58.00
5415;DHT22;2730;51.512;7.504;2023-02-16T01:48:37;4.90;82.00
5415;DHT22;2730;51.512;7.504;2023-02-16T01:51:07;4.80;91.20
5415;DHT22;2730;51.512;7.504;2023-02-16T01:53:39;4.70;96.20
5415;DHT22;2730;51.512;7.504;2023-02-16T01:56:17;4.80;99.90
5415;DHT22;2730;51.512;7.504;2023-02-16T01:58:48;4.80;99.30
5415;DHT22;2730;51.512;7.504;2023-02-16T02:01:43;4.90;94.10
5415;DHT22;2730;51.512;7.504;2023-02-16T02:04:24;4.80;88.40
5415;DHT22;2730;51.512;7.504;2023-02-16T02:07:16;4.70;93.50
5415;DHT22;2730;51.512;7.504;2023-02-16T02:09:49;4.80;96.90
5415;DHT22;2730;51.512;7.504;2023-02-16T02:12:24;4.80;92.90
5415;DHT22;2730;51.512;7.504;2023-02-16T02:14:54;4.90;84.50
5415;DHT22;2730;51.512;7.504;2023-02-16T02:17:23;4.80;80.20
5415;DHT22;2730;51.512;7.504;2023-02-16T02:19:56;4.80;89.70
5415;DHT22;2730;51.512;7.504;2023-02-16T02:29:05;4.80;83.90
5415;DHT22;2730;51.512;7.504;2023-02-16T02:31:45;4.80;81.20
5415;DHT22;2730;51.512;7.504;2023-02-16T02:34:22;4.90;75.00
5415;DHT22;2730;51.512;7.504;2023-02-16T02:37:02;4.90;58.50
5415;DHT22;2730;51.512;7.504;2023-02-16T02:39:37;4.80;64.50
5415;DHT22;2730;51.512;7.504;2023-02-16T02:42:11;4.70;79.80
5415;DHT22;2730;51.512;7.504;2023-02-16T02:44:45;4.70;80.90
5415;DHT22;2730;51.512;7.504;2023-02-16T02:47:13;4.70;87.70
5415;DHT22;2730;51.512;7.504;2023-02-16T02:49:39;4.70;72.90
5415;DHT22;2730;51.512;7.504;2023-02-16T02:52:07;4.80;72.40
5415;DHT22;2730;51.512;7.504;2023-02-16T02:54:37;4.70;64.30
5415;DHT22;2730;51.512;7.504;2023-02-16T02:57:25;4.60;74.10
5415;DHT22;2730;51.512;7.504;2023-02-16T03:00:17;4.70;69.80
5415;DHT22;2730;51.512;7.504;2023-02-16T03:03:06;4.70;52.30
5415;DHT22;2730;51.512;7.504;2023-02-16T03:05:36;4.60;53.70
5415;DHT22;2730;51.512;7.504;2023-02-16T03:08:07;4.60;65.60
5415;DHT22;2730;51.512;7.504;2023-02-16T03:10:41;4.70;60.30
5415;DHT22;2730;51.512;7.504;2023-02-16T03:13:30;4.70;63.90
5415;DHT22;2730;51.512;7.504;2023-02-16T03:16:02;4.70;53.50
5415;DHT22;2730;51.512;7.504;2023-02-16T03:18:34;4.70;44.20
5415;DHT22;2730;51.512;7.504;2023-02-16T03:21:18;4.80;42.30
5415;DHT22;2730;51.512;7.504;2023-02-16T03:24:06;4.80;38.00
5415;DHT22;2730;51.512;7.504;2023-02-16T03:26:53;4.90;22.70
5415;DHT22;2730;51.512;7.504;2023-02-16T03:29:38;5.00;10.20
5415;DHT22;2730;51.512;7.504;2023-02-16T03:32:07;5.10;6.50
5415;DHT22;2730;51.512;7.504;2023-02-16T03:34:35;5.00;4.90
5415;DHT22;2730;51.512;7.504;2023-02-16T03:37:02;5.00;4.10
5415;DHT22;2730;51.512;7.504;2023-02-16T03:39:30;5.00;1.20
5415;DHT22;2730;51.512;7.504;2023-02-16T03:42:18;5.00;1.00
5415;DHT22;2730;51.512;7.504;2023-02-16T03:44:45;4.90;6.40
5415;DHT22;2730;51.512;7.504;2023-02-16T03:47:13;4.80;10.00
5415;DHT22;2730;51.512;7.504;2023-02-16T03:49:40;5.00;2.90
5415;DHT22;2730;51.512;7.504;2023-02-16T03:52:07;4.90;1.00
5415;DHT22;2730;51.512;7.504;2023-02-16T03:54:34;4.80;13.60
5415;DHT22;2730;51.512;7.504;2023-02-16T03:57:01;4.80;15.70
5415;DHT22;2730;51.512;7.504;2023-02-16T03:59:28;4.80;9.80
5415;DHT22;2730;51.512;7.504;2023-02-16T04:01:54;4.90;9.50
5415;DHT22;2730;51.512;7.504;2023-02-16T04:04:22;5.00;1.00
5415;DHT22;2730;51.512;7.504;2023-02-16T04:06:49;5.00;1.00
5415;DHT22;2730;51.512;7.504;2023-02-16T04:09:16;5.10;1.00
5415;DHT22;2730;51.512;7.504;2023-02-16T04:11:43;4.90;1.00
5415;DHT22;2730;51.512;7.504;2023-02-16T04:14:27;4.80;3.30
5415;DHT22;2730;51.512;7.504;2023-02-16T04:16:54;4.70;6.90
5415;DHT22;2730;51.512;7.504;2023-02-16T04:19:22;4.60;11.20
5415;DHT22;2730;51.512;7.504;2023-02-16T04:21:49;4.40;23.10
5415;DHT22;2730;51.512;7.504;2023-02-16T04:24:17;4.30;38.30
5415;DHT22;2730;51.512;7.504;2023-02-16T04:26:44;4.50;38.40
5415;DHT22;2730;51.512;7.504;2023-02-16T04:29:11;4.50;31.90
5415;DHT22;2730;51.512;7.504;2023-02-16T04:31:37;4.40;43.70
5415;DHT22;2730;51.512;7.504;2023-02-16T04:34:04;4.60;29.60
5415;DHT22;2730;51.512;7.504;2023-02-16T04:36:32;4.50;27.10
5415;DHT22;2730;51.512;7.504;2023-02-16T04:38:59;4.50;28.70
5415;DHT22;2730;51.512;7.504;2023-02-16T04:41:26;4.60;20.30
5415;DHT22;2730;51.512;7.504;2023-02-16T04:43:53;4.60;22.10
5415;DHT22;2730;51.512;7.504;2023-02-16T04:46:20;4.50;22.90
5415;DHT22;2730;51.512;7.504;2023-02-16T04:48:46;4.60;22.00
5415;DHT22;2730;51.512;7.504;2023-02-16T04:51:13;4.50;24.60
5415;DHT22;2730;51.512;7.504;2023-02-16T04:53:41;4.50;22.00
5415;DHT22;2730;51.512;7.504;2023-02-16T04:56:09;4.50;25.90
5415;DHT22;2730;51.512;7.504;2023-02-16T04:58:36;4.40;38.00
5415;DHT22;2730;51.512;7.504;2023-02-16T05:01:03;4.40;37.60
5415;DHT22;2730;51.512;7.504;2023-02-16T05:03:29;4.30;42.70
5415;DHT22;2730;51.512;7.504;2023-02-16T05:05:56;4.30;47.50
5415;DHT22;2730;51.512;7.504;2023-02-16T05:08:23;4.30;50.00
5415;DHT22;2730;51.512;7.504;2023-02-16T05:10:51;4.20;54.00
5415;DHT22;2730;51.512;7.504;2023-02-16T05:13:32;4.10;63.60
5415;DHT22;2730;51.512;7.504;2023-02-16T05:16:12;4.00;71.00
5415;DHT22;2730;51.512;7.504;2023-02-16T05:18:39;4.10;82.60
5415;DHT22;2730;51.512;7.504;2023-02-16T05:21:06;4.20;68.90
5415;DHT22;2730;51.512;7.504;2023-02-16T05:23:50;4.10;61.80
5415;DHT22;2730;51.512;7.504;2023-02-16T05:26:19;4.00;70.20
5415;DHT22;2730;51.512;7.504;2023-02-16T05:28:45;4.00;74.60
5415;DHT22;2730;51.512;7.504;2023-02-16T05:31:12;3.90;84.70
5415;DHT22;2730;51.512;7.504;2023-02-16T05:33:39;4.00;86.30
5415;DHT22;2730;51.512;7.504;2023-02-16T05:36:06;3.90;82.20
5415;DHT22;2730;51.512;7.504;2023-02-16T05:38:33;3.90;90.10
5415;DHT22;2730;51.512;7.504;2023-02-16T05:41:00;3.80;94.20
5415;DHT22;2730;51.512;7.504;2023-02-16T05:43:28;3.80;95.40
5415;DHT22;2730;51.512;7.504;2023-02-16T05:45:55;3.80;96.70
5415;DHT22;2730;51.512;7.504;2023-02-16T05:48:22;3.80;97.20
5415;DHT22;2730;51.512;7.504;2023-02-16T05:50:48;3.70;98.90
5415;DHT22;2730;51.512;7.504;2023-02-16T05:53:17;3.70;99.90
5415;DHT22;2730;51.512;7.504;2023-02-16T05:55:44;3.70;99.90
5415;DHT22;2730;51.512;7.504;2023-02-16T05:58:10;3.70;99.90
5415;DHT22;2730;51.512;7.504;2023-02-16T06:00:39;3.70;99.90
5415;DHT22;2730;51.512;7.504;2023-02-16T06:03:05;3.70;99.90
5415;DHT22;2730;51.512;7.504;2023-02-16T06:05:32;3.80;99.90
5415;DHT22;2730;51.512;7.504;2023-02-16T06:07:59;3.80;99.90
5415;DHT22;2730;51.512;7.504;2023-02-16T06:10:26;3.80;99.90
5415;DHT22;2730;51.512;7.504;2023-02-16T06:12:53;3.80;99.90
5415;DHT22;2730;51.512;7.504;2023-02-16T06:15:19;3.80;99.90
5415;DHT22;2730;51.512;7.504;2023-02-16T06:17:48;3.80;99.90
5415;DHT22;2730;51.512;7.504;2023-02-16T06:20:14;3.90;99.90
5415;DHT22;2730;51.512;7.504;2023-02-16T06:22:41;3.90;99.90
5415;DHT22;2730;51.512;7.504;2023-02-16T06:25:08;3.80;99.90
5415;DHT22;2730;51.512;7.504;2023-02-16T06:27:35;3.90;99.90
5415;DHT22;2730;51.512;7.504;2023-02-16T06:30:02;3.90;99.90
5415;DHT22;2730;51.512;7.504;2023-02-16T06:32:29;3.90;99.90
5415;DHT22;2730;51.512;7.504;2023-02-16T06:34:59;3.90;99.90
5415;DHT22;2730;51.512;7.504;2023-02-16T06:37:25;3.90;99.90
5415;DHT22;2730;51.512;7.504;2023-02-16T06:39:52;4.00;99.90
5415;DHT22;2730;51.512;7.504;2023-02-16T06:42:19;4.00;99.90
5415;DHT22;2730;51.512;7.504;2023-02-16T06:44:46;4.10;99.90
5415;DHT22;2730;51.512;7.504;2023-02-16T06:47:13;4.20;99.70
5415;DHT22;2730;51.512;7.504;2023-02-16T06:49:39;4.20;96.60
5415;DHT22;2730;51.512;7.504;2023-02-16T06:52:07;4.20;94.80
5415;DHT22;2730;51.512;7.504;2023-02-16T06:54:34;4.20;96.70
5415;DHT22;2730;51.512;7.504;2023-02-16T06:57:01;4.30;97.60
5415;DHT22;2730;51.512;7.504;2023-02-16T06:59:28;4.30;95.50
5415;DHT22;2730;51.512;7.504;2023-02-16T07:01:54;4.40;90.90
5415;DHT22;2730;51.512;7.504;2023-02-16T07:04:21;4.60;87.70
5415;DHT22;2730;51.512;7.504;2023-02-16T07:06:48;4.70;58.60
5415;DHT22;2730;51.512;7.504;2023-02-16T07:09:16;4.80;48.50
5415;DHT22;2730;51.512;7.504;2023-02-16T07:11:43;4.90;30.70
5415;DHT22;2730;51.512;7.504;2023-02-16T07:14:10;5.00;30.30
5415;DHT22;2730;51.512;7.504;2023-02-16T07:16:37;5.10;25.00
5415;DHT22;2730;51.512;7.504;2023-02-16T07:19:03;5.30;14.20
5415;DHT22;2730;51.512;7.504;2023-02-16T07:21:31;5.40;8.00
5415;DHT22;2730;51.512;7.504;2023-02-16T07:23:58;5.50;4.90
5415;DHT22;2730;51.512;7.504;2023-02-16T07:26:26;5.60;99.90
5415;DHT22;2730;51.512;7.504;2023-02-16T07:28:53;5.70;99.90
5415;DHT22;2730;51.512;7.504;2023-02-16T07:31:20;5.70;99.90
5415;DHT22;2730;51.512;7.504;2023-02-16T07:33:51;5.80;99.90
5415;DHT22;2730;51.512;7.504;2023-02-16T07:36:17;5.90;99.90
5415;DHT22;2730;51.512;7.504;2023-02-16T07:38:44;5.90;99.90
5415;DHT22;2730;51.512;7.504;2023-02-16T07:41:11;6.00;99.90
5415;DHT22;2730;51.512;7.504;2023-02-16T07:43:39;6.00;99.90
5415;DHT22;2730;51.512;7.504;2023-02-16T07:46:07;6.10;99.90
5415;DHT22;2730;51.512;7.504;2023-02-16T07:48:34;6.10;99.90
5415;DHT22;2730;51.512;7.504;2023-02-16T07:51:01;6.10;99.90
5415;DHT22;2730;51.512;7.504;2023-02-16T07:53:27;6.20;99.90
5415;DHT22;2730;51.512;7.504;2023-02-16T07:55:54;6.40;99.90
5415;DHT22;2730;51.512;7.504;2023-02-16T07:58:21;6.40;99.90
5415;DHT22;2730;51.512;7.504;2023-02-16T08:00:59;6.50;99.90
5415;DHT22;2730;51.512;7.504;2023-02-16T08:03:30;6.40;99.90
5415;DHT22;2730;51.512;7.504;2023-02-16T08:05:59;6.40;99.90
5415;DHT22;2730;51.512;7.504;2023-02-16T08:08:26;6.50;99.90
5415;DHT22;2730;51.512;7.504;2023-02-16T08:10:53;6.60;99.90
5415;DHT22;2730;51.512;7.504;2023-02-16T08:13:20;6.60;99.90
5415;DHT22;2730;51.512;7.504;2023-02-16T08:15:46;6.80;99.90
5415;DHT22;2730;51.512;7.504;2023-02-16T08:18:15;6.80;99.90
5415;DHT22;2730;51.512;7.504;2023-02-16T08:20:41;6.90;99.90
5415;DHT22;2730;51.512;7.504;2023-02-16T08:23:09;6.90;99.90
5415;DHT22;2730;51.512;7.504;2023-02-16T08:25:36;6.90;99.90
5415;DHT22;2730;51.512;7.504;2023-02-16T08:28:03;7.00;99.90
5415;DHT22;2730;51.512;7.504;2023-02-16T08:30:31;7.10;99.90
5415;DHT22;2730;51.512;7.504;2023-02-16T08:32:59;7.20;99.90
5415;DHT22;2730;51.512;7.504;2023-02-16T08:35:28;7.30;99.90
5415;DHT22;2730;51.512;7.504;2023-02-16T08:37:57;7.50;99.90
5415;DHT22;2730;51.512;7.504;2023-02-16T08:40:24;7.60;99.90
5415;DHT22;2730;51.512;7.504;2023-02-16T08:42:51;7.70;99.90
5415;DHT22;2730;51.512;7.504;2023-02-16T08:45:18;7.90;99.90
5415;DHT22;2730;51.512;7.504;2023-02-16T08:47:46;8.00;99.90
5415;DHT22;2730;51.512;7.504;2023-02-16T08:50:13;8.10;99.90
5415;DHT22;2730;51.512;7.504;2023-02-16T08:52:42;8.20;99.90
5415;DHT22;2730;51.512;7.504;2023-02-16T08:55:10;8.20;99.90
5415;DHT22;2730;51.512;7.504;2023-02-16T08:57:36;8.30;99.90
5415;DHT22;2730;51.512;7.504;2023-02-16T09:00:04;8.40;99.90
5415;DHT22;2730;51.512;7.504;2023-02-16T09:02:49;8.50;99.90
5415;DHT22;2730;51.512;7.504;2023-02-16T09:05:15;8.60;99.90
5415;DHT22;2730;51.512;7.504;2023-02-16T09:07:44;8.70;99.90
5415;DHT22;2730;51.512;7.504;2023-02-16T09:10:10;8.60;99.90
5415;DHT22;2730;51.512;7.504;2023-02-16T09:12:38;8.60;99.90
5415;DHT22;2730;51.512;7.504;2023-02-16T09:15:05;8.80;99.90
5415;DHT22;2730;51.512;7.504;2023-02-16T09:17:33;8.80;99.90
5415;DHT22;2730;51.512;7.504;2023-02-16T09:20:00;8.80;99.90
5415;DHT22;2730;51.512;7.504;2023-02-16T09:22:28;9.00;99.90
5415;DHT22;2730;51.512;7.504;2023-02-16T09:24:57;9.00;99.90
5415;DHT22;2730;51.512;7.504;2023-02-16T09:27:24;9.30;99.90
5415;DHT22;2730;51.512;7.504;2023-02-16T09:29:52;9.40;99.90
5415;DHT22;2730;51.512;7.504;2023-02-16T09:32:18;9.60;99.90
5415;DHT22;2730;51.512;7.504;2023-02-16T09:34:45;9.80;99.90
5415;DHT22;2730;51.512;7.504;2023-02-16T09:37:14;10.20;99.90
5415;DHT22;2730;51.512;7.504;2023-02-16T09:39:41;10.80;99.90
5415;DHT22;2730;51.512;7.504;2023-02-16T09:42:20;11.40;99.90
5415;DHT22;2730;51.512;7.504;2023-02-16T09:44:57;11.80;99.90
5415;DHT22;2730;51.512;7.504;2023-02-16T09:47:27;12.30;99.90
5415;DHT22;2730;51.512;7.504;2023-02-16T09:49:56;12.50;99.90
5415;DHT22;2730;51.512;7.504;2023-02-16T09:52:29;12.70;99.90
5415;DHT22;2730;51.512;7.504;2023-02-16T09:55:01;13.00;99.90
5415;DHT22;2730;51.512;7.504;2023-02-16T09:57:42;13.80;99.90
5415;DHT22;2730;51.512;7.504;2023-02-16T10:00:20;14.50;99.90
5415;DHT22;2730;51.512;7.504;2023-02-16T10:02:52;14.20;99.90
5415;DHT22;2730;51.512;7.504;2023-02-16T10:05:24;13.80;99.90
5415;DHT22;2730;51.512;7.504;2023-02-16T10:07:59;13.60;99.90
5415;DHT22;2730;51.512;7.504;2023-02-16T10:10:32;13.10;99.90
5415;DHT22;2730;51.512;7.504;2023-02-16T10:13:06;12.70;99.90
5415;DHT22;2730;51.512;7.504;2023-02-16T10:15:35;12.40;99.90
5415;DHT22;2730;51.512;7.504;2023-02-16T10:18:12;12.00;99.90
5415;DHT22;2730;51.512;7.504;2023-02-16T10:20:44;11.70;99.90
5415;DHT22;2730;51.512;7.504;2023-02-16T10:23:30;11.50;99.90
5415;DHT22;2730;51.512;7.504;2023-02-16T10:26:01;11.30;99.90
5415;DHT22;2730;51.512;7.504;2023-02-16T10:28:38;11.40;99.90
5415;DHT22;2730;51.512;7.504;2023-02-16T10:31:13;11.50;99.90
5415;DHT22;2730;51.512;7.504;2023-02-16T10:33:43;11.40;99.90
5415;DHT22;2730;51.512;7.504;2023-02-16T10:36:20;11.40;99.90
5415;DHT22;2730;51.512;7.504;2023-02-16T10:38:53;11.30;99.90
5415;DHT22;2730;51.512;7.504;2023-02-16T10:41:30;11.20;99.90
5415;DHT22;2730;51.512;7.504;2023-02-16T10:44:03;11.00;99.90
5415;DHT22;2730;51.512;7.504;2023-02-16T10:46:39;10.80;99.90
5415;DHT22;2730;51.512;7.504;2023-02-16T10:49:09;10.60;99.90
5415;DHT22;2730;51.512;7.504;2023-02-16T10:51:36;10.60;99.90
5415;DHT22;2730;51.512;7.504;2023-02-16T10:54:09;10.50;99.90
5415;DHT22;2730;51.512;7.504;2023-02-16T10:56:46;10.50;99.90
5415;DHT22;2730;51.512;7.504;2023-02-16T10:59:19;10.40;99.90
5415;DHT22;2730;51.512;7.504;2023-02-16T11:01:48;10.30;99.90
5415;DHT22;2730;51.512;7.504;2023-02-16T11:04:31;10.20;99.90
5415;DHT22;2730;51.512;7.504;2023-02-16T11:07:04;10.10;99.90
5415;DHT22;2730;51.512;7.504;2023-02-16T11:09:31;10.10;99.90
5415;DHT22;2730;51.512;7.504;2023-02-16T11:11:59;10.00;99.90
5415;DHT22;2730;51.512;7.504;2023-02-16T11:14:29;10.00;99.90
5415;DHT22;2730;51.512;7.504;2023-02-16T11:17:07;9.90;99.90
5415;DHT22;2730;51.512;7.504;2023-02-16T11:19:37;10.00;99.90
5415;DHT22;2730;51.512;7.504;2023-02-16T11:22:05;10.00;99.90
5415;DHT22;2730;51.512;7.504;2023-02-16T11:24:35;10.20;99.90
5415;DHT22;2730;51.512;7.504;2023-02-16T11:27:05;10.30;99.90
5415;DHT22;2730;51.512;7.504;2023-02-16T11:29:33;10.40;99.90
5415;DHT22;2730;51.512;7.504;2023-02-16T11:32:05;10.60;99.90
5415;DHT22;2730;51.512;7.504;2023-02-16T11:34:34;10.70;99.90
5415;DHT22;2730;51.512;7.504;2023-02-16T11:37:05;10.90;99.90
5415;DHT22;2730;51.512;7.504;2023-02-16T11:39:36;11.10;99.90
5415;DHT22;2730;51.512;7.504;2023-02-16T11:42:07;11.20;99.90
5415;DHT22;2730;51.512;7.504;2023-02-16T11:44:38;11.30;99.90
5415;DHT22;2730;51.512;7.504;2023-02-16T11:47:19;11.40;99.90
5415;DHT22;2730;51.512;7.504;2023-02-16T11:49:48;11.40;99.90
5415;DHT22;2730;51.512;7.504;2023-02-16T11:52:25;11.50;99.90
5415;DHT22;2730;51.512;7.504;2023-02-16T11:54:55;11.50;99.90
5415;DHT22;2730;51.512;7.504;2023-02-16T11:57:24;11.60;99.90
5415;DHT22;2730;51.512;7.504;2023-02-16T11:59:55;11.70;99.90
5415;DHT22;2730;51.512;7.504;2023-02-16T12:05:42;11.50;99.90
5415;DHT22;2730;51.512;7.504;2023-02-16T12:08:23;11.70;99.90
5415;DHT22;2730;51.512;7.504;2023-02-16T12:11:17;11.70;99.90
5415;DHT22;2730;51.512;7.504;2023-02-16T12:13:56;11.70;99.90
5415;DHT22;2730;51.512;7.504;2023-02-16T12:16:34;11.80;99.90
5415;DHT22;2730;51.512;7.504;2023-02-16T12:19:26;11.70;99.90
5415;DHT22;2730;51.512;7.504;2023-02-16T12:22:02;11.60;99.90
5415;DHT22;2730;51.512;7.504;2023-02-16T12:24:42;11.60;99.90
5415;DHT22;2730;51.512;7.504;2023-02-16T12:27:19;11.30;99.90
5415;DHT22;2730;51.512;7.504;2023-02-16T12:29:53;11.30;99.90
5415;DHT22;2730;51.512;7.504;2023-02-16T12:32:47;11.20;99.90
5415;DHT22;2730;51.512;7.504;2023-02-16T12:35:40;11.10;99.90
5415;DHT22;2730;51.512;7.504;2023-02-16T12:38:19;11.10;99.90
5415;DHT22;2730;51.512;7.504;2023-02-16T12:40:56;11.00;1.00
5415;DHT22;2730;51.512;7.504;2023-02-16T12:43:34;11.00;1.00
5415;DHT22;2730;51.512;7.504;2023-02-16T12:46:08;11.10;1.00
5415;DHT22;2730;51.512;7.504;2023-02-16T12:48:42;10.80;1.00
5415;DHT22;2730;51.512;7.504;2023-02-16T12:51:14;10.70;1.00
5415;DHT22;2730;51.512;7.504;2023-02-16T12:53:47;10.50;1.00
5415;DHT22;2730;51.512;7.504;2023-02-16T12:56:19;10.50;1.00
5415;DHT22;2730;51.512;7.504;2023-02-16T12:58:49;10.40;1.00
5415;DHT22;2730;51.512;7.504;2023-02-16T13:01:24;10.40;1.00
5415;DHT22;2730;51.512;7.504;2023-02-16T13:03:56;10.50;1.00
5415;DHT22;2730;51.512;7.504;2023-02-16T13:06:29;10.60;1.00
5415;DHT22;2730;51.512;7.504;2023-02-16T13:09:05;10.60;1.00
5415;DHT22;2730;51.512;7.504;2023-02-16T13:11:39;10.70;1.00
5415;DHT22;2730;51.512;7.504;2023-02-16T13:14:15;10.80;1.00
5415;DHT22;2730;51.512;7.504;2023-02-16T13:16:45;10.80;1.00
5415;DHT22;2730;51.512;7.504;2023-02-16T13:19:14;10.80;99.90
5415;DHT22;2730;51.512;7.504;2023-02-16T13:22:00;10.80;99.90
5415;DHT22;2730;51.512;7.504;2023-02-16T13:24:39;10.90;99.90
5415;DHT22;2730;51.512;7.504;2023-02-16T13:27:19;11.00;99.90
5415;DHT22;2730;51.512;7.504;2023-02-16T13:30:01;10.90;99.90
5415;DHT22;2730;51.512;7.504;2023-02-16T13:32:46;11.00;99.90
5415;DHT22;2730;51.512;7.504;2023-02-16T13:35:41;11.10;99.90
5415;DHT22;2730;51.512;7.504;2023-02-16T13:38:27;11.10;99.90
5415;DHT22;2730;51.512;7.504;2023-02-16T13:41:19;11.20;99.90
5415;DHT22;2730;51.512;7.504;2023-02-16T13:43:54;11.20;99.90
5415;DHT22;2730;51.512;7.504;2023-02-16T13:46:27;11.20;99.90
5415;DHT22;2730;51.512;7.504;2023-02-16T13:48:56;11.20;99.90
5415;DHT22;2730;51.512;7.504;2023-02-16T13:51:25;11.20;99.90
5415;DHT22;2730;51.512;7.504;2023-02-16T13:53:57;11.30;99.90
5415;DHT22;2730;51.512;7.504;2023-02-16T13:56:33;11.20;99.90
5415;DHT22;2730;51.512;7.504;2023-02-16T14:02:11;11.10;99.90
5415;DHT22;2730;51.512;7.504;2023-02-16T14:05:01;11.20;99.90
5415;DHT22;2730;51.512;7.504;2023-02-16T14:07:34;11.30;99.90
5415;DHT22;2730;51.512;7.504;2023-02-16T14:10:03;11.20;99.90
5415;DHT22;2730;51.512;7.504;2023-02-16T14:12:31;11.30;99.90
5415;DHT22;2730;51.512;7.504;2023-02-16T14:15:03;11.40;99.90
5415;DHT22;2730;51.512;7.504;2023-02-16T14:17:33;11.50;99.90
5415;DHT22;2730;51.512;7.504;2023-02-16T14:20:03;11.50;99.90
5415;DHT22;2730;51.512;7.504;2023-02-16T14:22:38;11.50;99.90
5415;DHT22;2730;51.512;7.504;2023-02-16T14:25:30;11.30;99.90
5415;DHT22;2730;51.512;7.504;2023-02-16T14:28:01;11.30;99.90
5415;DHT22;2730;51.512;7.504;2023-02-16T14:30:31;11.30;99.90
5415;DHT22;2730;51.512;7.504;2023-02-16T14:33:04;11.30;99.90
5415;DHT22;2730;51.512;7.504;2023-02-16T14:35:35;11.30;99.90
5415;DHT22;2730;51.512;7.504;2023-02-16T14:38:06;11.30;99.90
5415;DHT22;2730;51.512;7.504;2023-02-16T14:40:46;11.20;99.90
5415;DHT22;2730;51.512;7.504;2023-02-16T14:43:24;11.30;99.90
5415;DHT22;2730;51.512;7.504;2023-02-16T14:46:26;11.20;99.90
5415;DHT22;2730;51.512;7.504;2023-02-16T14:49:25;11.10;99.90
5415;DHT22;2730;51.512;7.504;2023-02-16T14:55:36;11.10;99.90
5415;DHT22;2730;51.512;7.504;2023-02-16T14:58:18;11.00;99.90
5415;DHT22;2730;51.512;7.504;2023-02-16T15:00:51;11.00;99.90
5415;DHT22;2730;51.512;7.504;2023-02-16T15:03:21;11.00;99.90
5415;DHT22;2730;51.512;7.504;2023-02-16T15:05:52;11.00;99.90
5415;DHT22;2730;51.512;7.504;2023-02-16T15:08:23;10.90;99.90
5415;DHT22;2730;51.512;7.504;2023-02-16T15:10:52;11.00;99.90
5415;DHT22;2730;51.512;7.504;2023-02-16T15:13:25;11.00;99.90
5415;DHT22;2730;51.512;7.504;2023-02-16T15:15:55;11.10;99.90
5415;DHT22;2730;51.512;7.504;2023-02-16T15:18:24;10.90;99.90
5415;DHT22;2730;51.512;7.504;2023-02-16T15:20:54;10.90;99.90
5415;DHT22;2730;51.512;7.504;2023-02-16T15:23:22;10.90;99.90
5415;DHT22;2730;51.512;7.504;2023-02-16T15:25:56;11.00;99.90
5415;DHT22;2730;51.512;7.504;2023-02-16T15:28:25;11.10;99.90
5415;DHT22;2730;51.512;7.504;2023-02-16T15:30:55;11.30;99.90
5415;DHT22;2730;51.512;7.504;2023-02-16T15:33:29;11.20;99.90
5415;DHT22;2730;51.512;7.504;2023-02-16T15:35:59;11.10;99.90
5415;DHT22;2730;51.512;7.504;2023-02-16T15:38:28;10.90;99.90
5415;DHT22;2730;51.512;7.504;2023-02-16T15:40:59;10.70;99.90
5415;DHT22;2730;51.512;7.504;2023-02-16T15:43:30;10.70;99.90
5415;DHT22;2730;51.512;7.504;2023-02-16T15:45:58;10.60;99.90
5415;DHT22;2730;51.512;7.504;2023-02-16T15:48:28;10.60;99.90
5415;DHT22;2730;51.512;7.504;2023-02-16T15:50:59;10.50;99.90
5415;DHT22;2730;51.512;7.504;2023-02-16T15:53:33;10.30;99.90
5415;DHT22;2730;51.512;7.504;2023-02-16T15:56:16;10.20;1.00
5415;DHT22;2730;51.512;7.504;2023-02-16T15:58:45;10.20;3.00
5415;DHT22;2730;51.512;7.504;2023-02-16T16:01:19;10.20;1.50
5415;DHT22;2730;51.512;7.504;2023-02-16T16:03:47;10.20;7.70
5415;DHT22;2730;51.512;7.504;2023-02-16T16:06:14;10.20;11.30
5415;DHT22;2730;51.512;7.504;2023-02-16T16:08:40;10.20;5.70
5415;DHT22;2730;51.512;7.504;2023-02-16T16:11:09;10.30;1.00
5415;DHT22;2730;51.512;7.504;2023-02-16T16:13:36;10.30;1.00
5415;DHT22;2730;51.512;7.504;2023-02-16T16:16:03;10.30;1.00
5415;DHT22;2730;51.512;7.504;2023-02-16T16:18:44;10.30;1.00
5415;DHT22;2730;51.512;7.504;2023-02-16T16:21:22;10.30;99.90
5415;DHT22;2730;51.512;7.504;2023-02-16T16:23:53;10.30;99.90
5415;DHT22;2730;51.512;7.504;2023-02-16T16:26:23;10.30;99.90
5415;DHT22;2730;51.512;7.504;2023-02-16T16:28:50;10.30;99.90
5415;DHT22;2730;51.512;7.504;2023-02-16T16:31:40;10.20;99.90
5415;DHT22;2730;51.512;7.504;2023-02-16T16:34:10;10.10;99.90
5415;DHT22;2730;51.512;7.504;2023-02-16T16:36:42;10.10;99.90
5415;DHT22;2730;51.512;7.504;2023-02-16T16:39:22;10.00;99.90
5415;DHT22;2730;51.512;7.504;2023-02-16T16:42:17;10.10;99.90
5415;DHT22;2730;51.512;7.504;2023-02-16T16:44:56;10.10;99.90
5415;DHT22;2730;51.512;7.504;2023-02-16T16:47:31;10.10;99.90
5415;DHT22;2730;51.512;7.504;2023-02-16T16:50:02;10.10;99.90
5415;DHT22;2730;51.512;7.504;2023-02-16T16:52:32;10.10;99.90
5415;DHT22;2730;51.512;7.504;2023-02-16T16:54:59;10.10;99.90
5415;DHT22;2730;51.512;7.504;2023-02-16T16:57:27;10.20;99.90